Terminal Aerodrome Forecast
Issued by NWS Lubbock, TX

Home | Current Version | Previous Version | Text Only | Print | Product List | Glossary On
Versions: 1 2 3 4 5 6 7 8 9 10 11 12 13
591
FTUS44 KLUB 221725
TAFLBB
TAF
KLBB 221725Z 2218/2318 30021G26KT P6SM FEW250
     FM230000 23011KT P6SM FEW250
     FM231700 27027G37KT 5SM BLDU FEW250=

USA.gov is the U.S. government's official web portal to all federal, state and local government web resources and services.